首页
METAR-TAF:

METAR-TAF

机场 :

赤塔機場

赤塔, 俄罗斯

纬度: 52-05N, 经度: 113-29E, 海拔: 685米

当前天气观测

该预报发布于17分钟前的11:00 UTC
风速4节,风向西转西南
温度 10°C
湿度 16%
气压 1025 hPa
能见度10公里或以上

METAR: UIAA 091100Z 24002MPS 9999 NSC 10/M15 Q1025 R29/CLRD60 NOSIG RMK QFE710/0946

时间: 20:17 (11:17 UTC)

预报

该预报发布于3小时和17分钟前的08:00 UTC
预报有效从09日的 09点(UTC)到 10日的 09点(UTC)
风速6节,风向
能见度10公里或以上

TAF: UIAA 090800Z 0909/1009 08003MPS 9999 NSC

超过4000个机场的气象观测和天气预报(METAR&TAF报告)。

可查询的气象台以黄色和红色小点在地图上表示。

将鼠标移到小点上方,可查看气象台名称。

然后点击查看天气观测和预报。

如需切换地图:点击带黑十字的绿色按钮放大地图;点击带横线的绿色按钮缩小地图;或者点击绿色箭头查看邻近地区的地图。


METAR-TAF: